Hewittville, New York
Current Conditions -  °F | °C
As of 12:53 PM on Wednesday 28 Jan 2015 (Local Time) from KMSS Reporting Station
Clear Clear  
Wind Chill:   Ceiling: Unl
Heat Index: 12°   Visibility: 10mi
Dew Point: -8°   Wind: 9mph
Humidity: 41%   Direction: 250°WSW
Pressure: 30.24"   Gusts: NA
Location:  44.7612°N, 74.9585°W
Report Text: KMSS 281753Z AUTO 25008KT 10SM CLR M11/M22 A3024 RMK AO2 SLP248 T11111222 11111 21167 50002
Loading
Personal Weather Stations






























Interactive Weather Map New forecast layout! Learn more

10-Day Weather Forecast

Advertisements
Track Severe Weather on mobile